メインページ
METAR-TAF:

METAR-TAF

空港 :

ベルリン・テーゲル空港

ベルリン, ドイツ

緯度: 52-34N, 経度: 013-19E, 海抜: 37m

現時点の気象観測

当レポートは33分前の03:20(UTC)に作成
西/南西の風 9kt
気温 3°C
湿度 75%
気圧 1014 hPa
視程10km以上
高度4300ftの千切れ雲あり

METAR: EDDT 250320Z 24009KT 9999 BKN043 03/M01 Q1014

時間: 04:53 (03:53 UTC)

予報

当レポートは4時間53分前の23:00(UTC)に作成
予報は25日の 00時(UTC)から 25日の 24時(UTC)まで有効
西/南西の風 10kt
視程10km以上
高度4000ftの雲は散在している
25日の 05時(UTC)から 25日の 09時(UTC)まで一時的に
西/北西の風 15kt、最大25ktの突風を伴う
高度1400ftの千切れ雲あり, 積乱雲.
にわか雨
25日の 08時(UTC)から 25日の 10時(UTC)まで徐々に
西/北西の風 15kt、最大25ktの突風を伴う
25日の 09時(UTC)から 25日の 18時(UTC)まで一時的に
西/北西の風 20kt、最大30ktの突風を伴う
視程: 4000m
高度1200ftの千切れ雲あり, 積乱雲.
激しい雷雨, 雨, 氷霰/雪霰

TAF: EDDT 242300Z 2500/2524 24010KT 9999 SCT040 TEMPO 2505/2509 29015G25KT SHRA BKN014CB BECMG 2508/2510 29015G25KT TEMPO 2509/2518 29020G30KT 4000 TSRAGS BKN012CB

4,000以上の空港の気象観測と天気予報(METAR報とTAF報)

利用可能な観測所は地図上に黄色い丸と赤い丸で示す。

丸の上にカーソルを重ねると観測所名を参照できる。

次にクリックすると気象観測と天気予報を参照できる。

マップの切り替え:黒色「×」印の緑ボタンをクリックして拡大、「-」印の緑ボタンをクリックして縮小、緑色の三角印をクリックして隣りの地図に切り替え


METAR-TAF: